createdAt,value
2023-04-02T00:00:21.878Z,84.95
2023-04-02T00:05:51.857Z,85.04
2023-04-02T00:11:00.495Z,85.06
2023-04-02T00:16:11.859Z,85.04
2023-04-02T00:21:24.791Z,85.10
2023-04-02T00:26:37.905Z,85.14
2023-04-02T00:31:47.745Z,85.21
2023-04-02T00:36:54.877Z,85.21
2023-04-02T00:42:05.236Z,85.26
2023-04-02T00:47:20.818Z,85.24
2023-04-02T00:52:30.776Z,85.38
2023-04-02T00:57:36.863Z,85.44
2023-04-02T01:02:42.895Z,85.43
2023-04-02T01:08:04.813Z,85.44
2023-04-02T01:13:25.179Z,85.55
2023-04-02T01:18:46.534Z,85.54
2023-04-02T01:24:04.344Z,85.54
2023-04-02T01:29:14.417Z,85.63
2023-04-02T01:34:25.073Z,85.69
2023-04-02T01:39:48.999Z,85.64
2023-04-02T01:45:01.970Z,85.61
2023-04-02T01:50:31.062Z,85.51
2023-04-02T01:55:44.442Z,85.51
2023-04-02T02:00:56.436Z,85.61
2023-04-02T02:06:05.259Z,85.55
2023-04-02T02:11:17.294Z,85.59
2023-04-02T02:16:24.410Z,85.68
2023-04-02T02:21:42.022Z,85.68
2023-04-02T02:26:51.537Z,85.64
2023-04-02T02:31:59.861Z,85.51
2023-04-02T02:37:15.025Z,85.47
2023-04-02T02:42:28.609Z,85.42
2023-04-02T02:47:37.461Z,85.35
2023-04-02T02:52:52.312Z,85.21
2023-04-02T02:58:03.087Z,85.19
2023-04-02T03:03:14.377Z,84.99
2023-04-02T03:08:30.350Z,85.28
2023-04-02T03:13:38.975Z,85.21
2023-04-02T03:18:52.285Z,84.97
2023-04-02T03:24:04.154Z,85.01
2023-04-02T03:29:19.772Z,85.01
2023-04-02T03:34:33.055Z,84.91
2023-04-02T03:39:45.070Z,84.96
2023-04-02T03:44:57.484Z,84.99
2023-04-02T03:50:10.927Z,85.00
2023-04-02T03:55:22.592Z,84.97
2023-04-02T04:00:37.233Z,85.01
2023-04-02T04:05:51.655Z,85.03
2023-04-02T04:11:07.610Z,84.96
2023-04-02T04:16:19.408Z,85.11
2023-04-02T04:21:36.851Z,85.14
2023-04-02T04:26:49.145Z,85.25
2023-04-02T04:31:55.394Z,85.46
2023-04-02T04:37:07.413Z,85.61
2023-04-02T04:42:21.353Z,85.67
2023-04-02T04:47:32.755Z,85.68
2023-04-02T04:52:41.472Z,85.78
2023-04-02T04:57:50.830Z,85.79
2023-04-02T05:03:06.632Z,85.74
2023-04-02T05:08:19.656Z,85.69
2023-04-02T05:13:34.619Z,85.71
2023-04-02T05:18:47.636Z,85.56
2023-04-02T05:24:05.512Z,85.47
2023-04-02T05:29:18.631Z,85.43
2023-04-02T05:34:28.045Z,85.39
2023-04-02T05:39:33.898Z,85.33
2023-04-02T05:44:55.526Z,85.29
2023-04-02T05:50:21.589Z,84.81
2023-04-02T05:55:42.624Z,85.04
2023-04-02T06:01:20.564Z,84.96
2023-04-02T06:06:43.540Z,85.00
2023-04-02T06:11:56.145Z,85.08
2023-04-02T06:17:02.183Z,84.71
2023-04-02T06:22:20.994Z,84.75
2023-04-02T06:27:29.432Z,84.99
2023-04-02T06:32:35.785Z,84.88
2023-04-02T06:37:45.840Z,84.77
2023-04-02T06:42:59.092Z,84.69
2023-04-02T06:48:06.854Z,84.74
2023-04-02T06:53:23.913Z,84.62
2023-04-02T06:58:29.479Z,84.52
2023-04-02T07:03:35.701Z,84.22
2023-04-02T07:08:41.270Z,84.07
2023-04-02T07:13:47.870Z,83.96
2023-04-02T07:18:55.090Z,84.04
2023-04-02T07:24:00.812Z,84.12
2023-04-02T07:29:07.959Z,84.07
2023-04-02T07:34:13.770Z,83.68
2023-04-02T07:39:19.458Z,83.42
2023-04-02T07:44:25.385Z,83.49
2023-04-02T07:49:30.967Z,83.46
2023-04-02T07:54:37.804Z,83.26
2023-04-02T07:59:43.432Z,83.25
2023-04-02T08:04:50.808Z,83.11
2023-04-02T08:09:56.394Z,83.07
2023-04-02T08:15:02.521Z,82.71
2023-04-02T08:20:15.628Z,82.76
2023-04-02T08:25:21.220Z,82.48
2023-04-02T08:30:26.859Z,82.54
2023-04-02T08:35:33.394Z,82.43
2023-04-02T08:40:43.036Z,82.50
2023-04-02T08:46:04.671Z,82.71
2023-04-02T08:51:22.839Z,82.03
2023-04-02T08:56:37.532Z,82.32
2023-04-02T09:01:56.807Z,82.29
2023-04-02T09:07:04.002Z,82.32
2023-04-02T09:12:21.160Z,82.32
2023-04-02T09:17:29.139Z,82.10
2023-04-02T09:22:36.151Z,82.10
2023-04-02T09:27:41.816Z,82.18
2023-04-02T09:32:53.221Z,82.00
2023-04-02T09:38:22.163Z,81.75
2023-04-02T09:43:30.460Z,81.72
2023-04-02T09:48:39.621Z,81.36
2023-04-02T09:53:48.672Z,81.69
2023-04-02T09:59:07.744Z,81.31
2023-04-02T10:04:38.138Z,81.55
2023-04-02T10:09:44.410Z,81.07
2023-04-02T10:14:51.823Z,80.65
2023-04-02T10:20:01.839Z,80.36
2023-04-02T10:25:16.645Z,79.82
2023-04-02T10:30:26.815Z,79.19
2023-04-02T10:35:47.897Z,79.34
2023-04-02T10:41:02.921Z,79.22
2023-04-02T10:46:18.114Z,78.28
2023-04-02T10:51:38.875Z,77.99
2023-04-02T10:56:51.143Z,77.33
2023-04-02T11:02:01.913Z,77.08
2023-04-02T11:07:17.542Z,75.88
2023-04-02T11:12:30.110Z,75.90
2023-04-02T11:17:36.463Z,74.74
2023-04-02T11:22:42.430Z,74.64
2023-04-02T11:27:48.357Z,74.07
2023-04-02T11:32:55.910Z,72.88
2023-04-02T11:38:23.938Z,72.05
2023-04-02T11:43:59.595Z,71.05
2023-04-02T11:49:39.876Z,71.61
2023-04-02T11:54:46.948Z,69.55
2023-04-02T12:00:21.070Z,69.41
2023-04-02T12:05:36.312Z,67.79
2023-04-02T12:10:57.675Z,67.06
2023-04-02T12:16:04.219Z,68.04
2023-04-02T12:21:17.264Z,67.21
2023-04-02T12:26:37.839Z,66.72
2023-04-02T12:31:47.824Z,66.06
2023-04-02T12:37:02.310Z,65.31
2023-04-02T12:42:27.334Z,65.08
2023-04-02T12:47:33.846Z,64.55
2023-04-02T12:52:48.263Z,64.06
2023-04-02T12:58:00.318Z,63.33
2023-04-02T13:03:20.769Z,62.03
2023-04-02T13:08:30.302Z,61.47
2023-04-02T13:13:39.435Z,61.03
2023-04-02T13:18:47.394Z,60.74
2023-04-02T13:23:53.487Z,61.42
2023-04-02T13:29:10.884Z,60.58
2023-04-02T13:34:17.402Z,60.99
2023-04-02T13:39:23.845Z,61.58
2023-04-02T13:44:32.060Z,60.53
2023-04-02T13:49:38.178Z,60.65
2023-04-02T13:54:50.373Z,59.10
2023-04-02T13:59:56.091Z,58.35
2023-04-02T14:05:21.300Z,57.93
2023-04-02T14:10:46.673Z,58.90
2023-04-02T14:16:12.536Z,58.19
2023-04-02T14:21:30.827Z,57.62
2023-04-02T14:26:46.358Z,56.19
2023-04-02T14:32:00.207Z,57.00
2023-04-02T14:37:21.130Z,57.63
2023-04-02T14:42:34.199Z,56.85
2023-04-02T14:47:46.581Z,55.72
2023-04-02T14:52:58.627Z,54.69
2023-04-02T14:58:10.369Z,54.82
2023-04-02T15:03:23.166Z,55.22
2023-04-02T15:08:31.898Z,53.48
2023-04-02T15:13:43.686Z,53.13
2023-04-02T15:18:55.681Z,53.00
2023-04-02T15:24:14.108Z,52.72
2023-04-02T15:29:34.526Z,51.31
2023-04-02T15:34:48.663Z,52.53
2023-04-02T15:40:09.157Z,51.28
2023-04-02T15:45:43.231Z,51.28
2023-04-02T15:51:03.343Z,51.56
2023-04-02T15:56:25.199Z,51.06
2023-04-02T16:01:46.644Z,49.67
2023-04-02T16:07:19.908Z,49.60
2023-04-02T16:12:29.382Z,49.76
2023-04-02T16:17:42.025Z,49.33
2023-04-02T16:23:01.110Z,49.15
2023-04-02T16:28:19.858Z,48.72
2023-04-02T16:33:44.581Z,48.80
2023-04-02T16:39:01.361Z,48.71
2023-04-02T16:44:29.290Z,46.57
2023-04-02T16:49:42.438Z,45.39
2023-04-02T16:55:05.734Z,45.47
2023-04-02T17:00:24.793Z,46.15
2023-04-02T17:05:35.634Z,45.65
2023-04-02T17:10:51.779Z,46.34
2023-04-02T17:16:09.467Z,46.81
2023-04-02T17:21:21.633Z,47.17
2023-04-02T17:26:32.967Z,47.71
2023-04-02T17:31:41.563Z,48.99
2023-04-02T17:36:57.789Z,50.34
2023-04-02T17:42:18.113Z,51.02
2023-04-02T17:47:30.665Z,51.74
2023-04-02T17:52:44.369Z,52.24
2023-04-02T17:58:07.476Z,52.67
2023-04-02T18:03:40.443Z,52.99
2023-04-02T18:09:05.640Z,53.92
2023-04-02T18:14:34.447Z,54.37
2023-04-02T18:19:51.113Z,54.54
2023-04-02T18:25:24.826Z,55.44
2023-04-02T18:30:42.848Z,55.67
2023-04-02T18:36:01.670Z,56.33
2023-04-02T18:41:27.373Z,56.85
2023-04-02T18:46:44.452Z,57.33
2023-04-02T18:51:57.702Z,57.44
2023-04-02T18:57:12.613Z,57.90
2023-04-02T19:02:43.054Z,58.19
2023-04-02T19:07:54.272Z,58.83
2023-04-02T19:13:00.249Z,59.19
2023-04-02T19:18:18.863Z,59.94
2023-04-02T19:23:45.369Z,60.12
2023-04-02T19:29:03.441Z,60.61
2023-04-02T19:34:21.118Z,61.03
2023-04-02T19:39:53.834Z,61.47
2023-04-02T19:45:00.293Z,61.84
2023-04-02T19:50:08.076Z,62.17
2023-04-02T19:55:14.457Z,62.87
2023-04-02T20:00:22.216Z,62.69
2023-04-02T20:05:28.194Z,63.13
2023-04-02T20:10:34.590Z,63.55
2023-04-02T20:15:41.776Z,63.69
2023-04-02T20:20:49.182Z,64.31
2023-04-02T20:25:58.332Z,64.48
2023-04-02T20:31:13.812Z,64.56
2023-04-02T20:36:20.139Z,64.49
2023-04-02T20:41:27.058Z,64.67
2023-04-02T20:46:33.190Z,64.90
2023-04-02T20:51:39.149Z,64.93
2023-04-02T20:56:45.087Z,65.10
2023-04-02T21:01:51.237Z,65.64
2023-04-02T21:06:57.241Z,65.53
2023-04-02T21:12:03.186Z,65.88
2023-04-02T21:17:09.413Z,66.18
2023-04-02T21:22:15.056Z,66.06
2023-04-02T21:27:25.170Z,66.34
2023-04-02T21:32:31.386Z,66.14
2023-04-02T21:37:37.452Z,66.33
2023-04-02T21:42:43.228Z,66.43
2023-04-02T21:47:48.966Z,66.43
2023-04-02T21:52:54.846Z,66.68
2023-04-02T21:58:00.608Z,66.92
2023-04-02T22:03:06.341Z,67.63
2023-04-02T22:08:12.679Z,67.49
2023-04-02T22:13:18.760Z,67.71
2023-04-02T22:18:24.769Z,67.81
2023-04-02T22:23:32.271Z,67.68
2023-04-02T22:28:38.219Z,67.84
2023-04-02T22:33:45.082Z,68.04
2023-04-02T22:38:51.579Z,67.90
2023-04-02T22:43:58.511Z,67.72
2023-04-02T22:49:04.252Z,67.42
2023-04-02T22:54:10.188Z,67.23
2023-04-02T22:59:16.400Z,67.29
2023-04-02T23:04:22.713Z,67.04
2023-04-02T23:09:28.910Z,67.01
2023-04-02T23:14:34.973Z,67.01
2023-04-02T23:19:40.748Z,66.89
2023-04-02T23:24:46.816Z,66.78
2023-04-02T23:29:52.962Z,66.64
2023-04-02T23:34:59.164Z,66.50
2023-04-02T23:40:06.360Z,66.46
2023-04-02T23:45:13.361Z,66.61
2023-04-02T23:50:19.592Z,66.54
2023-04-02T23:55:25.527Z,66.54
